sensor_id;sensor_type;location;lat;lon;timestamp;pressure;altitude;pressure_sealevel;temperature;humidity
8140;BME280;4111;50.972;7.072;2023-04-21T00:02:15;100894.41;;;8.98;100.00
8140;BME280;4111;50.972;7.072;2023-04-21T00:04:42;100899.59;;;9.00;100.00
8140;BME280;4111;50.972;7.072;2023-04-21T00:07:11;100897.22;;;8.91;100.00
8140;BME280;4111;50.972;7.072;2023-04-21T00:09:40;100896.06;;;8.99;100.00
8140;BME280;4111;50.972;7.072;2023-04-21T00:12:06;100890.91;;;9.09;100.00
8140;BME280;4111;50.972;7.072;2023-04-21T00:14:33;100897.59;;;9.07;100.00
8140;BME280;4111;50.972;7.072;2023-04-21T00:16:59;100893.75;;;9.15;100.00
8140;BME280;4111;50.972;7.072;2023-04-21T00:19:25;100896.19;;;9.16;100.00
8140;BME280;4111;50.972;7.072;2023-04-21T00:21:52;100885.94;;;9.18;100.00
8140;BME280;4111;50.972;7.072;2023-04-21T00:24:24;100882.91;;;9.15;100.00
8140;BME280;4111;50.972;7.072;2023-04-21T00:26:51;100873.03;;;9.20;100.00
8140;BME280;4111;50.972;7.072;2023-04-21T00:29:17;100867.13;;;9.23;100.00
8140;BME280;4111;50.972;7.072;2023-04-21T00:31:44;100871.72;;;9.35;100.00
8140;BME280;4111;50.972;7.072;2023-04-21T00:34:11;100874.66;;;9.33;100.00
8140;BME280;4111;50.972;7.072;2023-04-21T00:36:37;100873.13;;;9.25;100.00
8140;BME280;4111;50.972;7.072;2023-04-21T00:39:03;100860.53;;;9.31;100.00
8140;BME280;4111;50.972;7.072;2023-04-21T00:41:31;100863.00;;;9.21;100.00
8140;BME280;4111;50.972;7.072;2023-04-21T00:44:08;100860.75;;;9.18;100.00
8140;BME280;4111;50.972;7.072;2023-04-21T00:46:35;100863.44;;;9.06;100.00
8140;BME280;4111;50.972;7.072;2023-04-21T00:49:03;100870.31;;;9.20;100.00
8140;BME280;4111;50.972;7.072;2023-04-21T00:51:32;100862.41;;;9.19;100.00
8140;BME280;4111;50.972;7.072;2023-04-21T00:54:01;100862.19;;;9.20;100.00
8140;BME280;4111;50.972;7.072;2023-04-21T00:56:30;100856.41;;;9.28;100.00
8140;BME280;4111;50.972;7.072;2023-04-21T00:58:58;100848.88;;;9.30;100.00
8140;BME280;4111;50.972;7.072;2023-04-21T01:01:27;100852.03;;;9.27;100.00
8140;BME280;4111;50.972;7.072;2023-04-21T01:03:58;100845.00;;;9.26;100.00
8140;BME280;4111;50.972;7.072;2023-04-21T01:06:30;100845.91;;;9.32;100.00
8140;BME280;4111;50.972;7.072;2023-04-21T01:08:57;100841.34;;;9.32;100.00
8140;BME280;4111;50.972;7.072;2023-04-21T01:11:24;100840.38;;;9.39;100.00
8140;BME280;4111;50.972;7.072;2023-04-21T01:13:53;100843.69;;;9.41;100.00
8140;BME280;4111;50.972;7.072;2023-04-21T01:16:21;100830.72;;;9.43;100.00
8140;BME280;4111;50.972;7.072;2023-04-21T01:18:49;100840.16;;;9.40;100.00
8140;BME280;4111;50.972;7.072;2023-04-21T01:21:19;100843.44;;;9.30;100.00
8140;BME280;4111;50.972;7.072;2023-04-21T01:23:46;100846.53;;;9.34;100.00
8140;BME280;4111;50.972;7.072;2023-04-21T01:26:16;100844.50;;;9.29;100.00
8140;BME280;4111;50.972;7.072;2023-04-21T01:28:43;100845.44;;;9.35;100.00
8140;BME280;4111;50.972;7.072;2023-04-21T01:31:09;100843.44;;;9.30;100.00
8140;BME280;4111;50.972;7.072;2023-04-21T01:33:36;100844.50;;;9.29;100.00
8140;BME280;4111;50.972;7.072;2023-04-21T01:36:03;100845.44;;;9.35;100.00
8140;BME280;4111;50.972;7.072;2023-04-21T01:38:29;100850.63;;;9.37;100.00
8140;BME280;4111;50.972;7.072;2023-04-21T01:40:56;100854.75;;;9.39;100.00
8140;BME280;4111;50.972;7.072;2023-04-21T01:43:24;100855.69;;;9.33;100.00
8140;BME280;4111;50.972;7.072;2023-04-21T01:45:51;100852.16;;;9.32;100.00
8140;BME280;4111;50.972;7.072;2023-04-21T01:48:18;100861.47;;;9.37;100.00
8140;BME280;4111;50.972;7.072;2023-04-21T01:50:45;100861.25;;;9.38;100.00
8140;BME280;4111;50.972;7.072;2023-04-21T01:53:11;100856.50;;;9.33;100.00
8140;BME280;4111;50.972;7.072;2023-04-21T01:55:38;100856.88;;;9.25;100.00
8140;BME280;4111;50.972;7.072;2023-04-21T01:58:04;100855.69;;;9.21;100.00
8140;BME280;4111;50.972;7.072;2023-04-21T02:00:31;100866.97;;;9.18;100.00
8140;BME280;4111;50.972;7.072;2023-04-21T02:02:57;100857.34;;;9.22;100.00
8140;BME280;4111;50.972;7.072;2023-04-21T02:05:24;100861.94;;;9.22;100.00
8140;BME280;4111;50.972;7.072;2023-04-21T02:07:50;100861.09;;;9.21;100.00
8140;BME280;4111;50.972;7.072;2023-04-21T02:10:17;100864.41;;;9.23;100.00
8140;BME280;4111;50.972;7.072;2023-04-21T02:12:43;100862.41;;;9.19;100.00
8140;BME280;4111;50.972;7.072;2023-04-21T02:15:10;100861.56;;;9.18;100.00
8140;BME280;4111;50.972;7.072;2023-04-21T02:17:36;100859.47;;;9.20;100.00
8140;BME280;4111;50.972;7.072;2023-04-21T02:20:05;100863.69;;;9.16;100.00
8140;BME280;4111;50.972;7.072;2023-04-21T02:22:32;100867.47;;;9.15;100.00
8140;BME280;4111;50.972;7.072;2023-04-21T02:24:58;100851.91;;;8.99;100.00
8140;BME280;4111;50.972;7.072;2023-04-21T02:27:24;100864.88;;;8.97;100.00
8140;BME280;4111;50.972;7.072;2023-04-21T02:29:51;100859.91;;;8.93;100.00
8140;BME280;4111;50.972;7.072;2023-04-21T02:32:17;100856.47;;;8.86;100.00
8140;BME280;4111;50.972;7.072;2023-04-21T02:34:51;100850.44;;;8.84;100.00
8140;BME280;4111;50.972;7.072;2023-04-21T02:37:18;100850.09;;;8.92;100.00
8140;BME280;4111;50.972;7.072;2023-04-21T02:39:44;100847.66;;;8.91;100.00
8140;BME280;4111;50.972;7.072;2023-04-21T02:42:11;100849.06;;;8.93;100.00
8140;BME280;4111;50.972;7.072;2023-04-21T02:44:37;100850.44;;;8.84;100.00
8140;BME280;4111;50.972;7.072;2023-04-21T02:47:04;100850.69;;;8.83;100.00
8140;BME280;4111;50.972;7.072;2023-04-21T02:49:30;100862.56;;;8.82;100.00
8140;BME280;4111;50.972;7.072;2023-04-21T02:51:57;100853.50;;;8.76;100.00
8140;BME280;4111;50.972;7.072;2023-04-21T02:54:23;100862.13;;;8.85;100.00
8140;BME280;4111;50.972;7.072;2023-04-21T02:56:50;100863.41;;;8.82;100.00
8140;BME280;4111;50.972;7.072;2023-04-21T02:59:16;100862.47;;;8.88;100.00
8140;BME280;4111;50.972;7.072;2023-04-21T03:01:43;100865.50;;;8.80;100.00
8140;BME280;4111;50.972;7.072;2023-04-21T03:04:11;100861.50;;;8.71;100.00
8140;BME280;4111;50.972;7.072;2023-04-21T03:06:38;100860.75;;;8.64;100.00
8140;BME280;4111;50.972;7.072;2023-04-21T03:09:04;100867.81;;;8.65;100.00
8140;BME280;4111;50.972;7.072;2023-04-21T03:11:31;100855.81;;;8.61;100.00
8140;BME280;4111;50.972;7.072;2023-04-21T03:13:57;100864.16;;;8.59;100.00
8140;BME280;4111;50.972;7.072;2023-04-21T03:16:23;100862.50;;;8.58;100.00
8140;BME280;4111;50.972;7.072;2023-04-21T03:18:50;100871.16;;;8.67;100.00
8140;BME280;4111;50.972;7.072;2023-04-21T03:21:16;100865.25;;;8.70;100.00
8140;BME280;4111;50.972;7.072;2023-04-21T03:23:43;100862.31;;;8.71;100.00
8140;BME280;4111;50.972;7.072;2023-04-21T03:26:09;100875.50;;;8.68;100.00
8140;BME280;4111;50.972;7.072;2023-04-21T03:28:36;100873.22;;;8.65;100.00
8140;BME280;4111;50.972;7.072;2023-04-21T03:31:02;100872.63;;;8.63;100.00
8140;BME280;4111;50.972;7.072;2023-04-21T03:33:29;100883.78;;;8.54;100.00
8140;BME280;4111;50.972;7.072;2023-04-21T03:35:55;100876.50;;;8.55;100.00
8140;BME280;4111;50.972;7.072;2023-04-21T03:38:22;100874.03;;;8.53;100.00
8140;BME280;4111;50.972;7.072;2023-04-21T03:40:48;100872.97;;;8.54;100.00
8140;BME280;4111;50.972;7.072;2023-04-21T03:43:15;100881.31;;;8.53;100.00
8140;BME280;4111;50.972;7.072;2023-04-21T03:45:42;100875.06;;;8.52;100.00
8140;BME280;4111;50.972;7.072;2023-04-21T03:48:08;100863.81;;;8.56;100.00
8140;BME280;4111;50.972;7.072;2023-04-21T03:50:35;100867.56;;;8.54;100.00
8140;BME280;4111;50.972;7.072;2023-04-21T03:53:02;100879.78;;;8.45;100.00
8140;BME280;4111;50.972;7.072;2023-04-21T03:55:29;100871.06;;;8.43;100.00
8140;BME280;4111;50.972;7.072;2023-04-21T03:57:55;100868.94;;;8.45;100.00
8140;BME280;4111;50.972;7.072;2023-04-21T04:00:22;100866.00;;;8.47;100.00
8140;BME280;4111;50.972;7.072;2023-04-21T04:02:48;100857.53;;;8.43;100.00
8140;BME280;4111;50.972;7.072;2023-04-21T04:05:15;100869.81;;;8.39;100.00
8140;BME280;4111;50.972;7.072;2023-04-21T04:07:42;100870.88;;;8.38;100.00
8140;BME280;4111;50.972;7.072;2023-04-21T04:10:08;100865.47;;;8.38;100.00
8140;BME280;4111;50.972;7.072;2023-04-21T04:12:35;100865.84;;;8.23;100.00
8140;BME280;4111;50.972;7.072;2023-04-21T04:15:01;100862.00;;;8.31;100.00
8140;BME280;4111;50.972;7.072;2023-04-21T04:17:28;100859.91;;;8.33;100.00
8140;BME280;4111;50.972;7.072;2023-04-21T04:19:54;100866.16;;;8.33;100.00
8140;BME280;4111;50.972;7.072;2023-04-21T04:22:21;100870.72;;;8.33;100.00
8140;BME280;4111;50.972;7.072;2023-04-21T04:24:48;100867.75;;;8.41;100.00
8140;BME280;4111;50.972;7.072;2023-04-21T04:27:14;100877.31;;;8.37;100.00
8140;BME280;4111;50.972;7.072;2023-04-21T04:29:40;100877.91;;;8.27;100.00
8140;BME280;4111;50.972;7.072;2023-04-21T04:32:07;100878.25;;;8.31;100.00
8140;BME280;4111;50.972;7.072;2023-04-21T04:34:36;100875.09;;;8.34;100.00
8140;BME280;4111;50.972;7.072;2023-04-21T04:37:03;100873.75;;;8.25;100.00
8140;BME280;4111;50.972;7.072;2023-04-21T04:39:29;100871.03;;;8.25;100.00
8140;BME280;4111;50.972;7.072;2023-04-21T04:41:57;100871.03;;;8.25;100.00
8140;BME280;4111;50.972;7.072;2023-04-21T04:44:23;100869.16;;;8.25;100.00
8140;BME280;4111;50.972;7.072;2023-04-21T04:46:51;100875.63;;;8.24;100.00
8140;BME280;4111;50.972;7.072;2023-04-21T04:49:18;100867.91;;;8.28;100.00
8140;BME280;4111;50.972;7.072;2023-04-21T04:51:44;100861.28;;;8.24;100.00
8140;BME280;4111;50.972;7.072;2023-04-21T04:54:11;100864.91;;;8.18;100.00
8140;BME280;4111;50.972;7.072;2023-04-21T04:56:37;100870.31;;;8.18;100.00
8140;BME280;4111;50.972;7.072;2023-04-21T04:59:04;100863.94;;;8.12;100.00
8140;BME280;4111;50.972;7.072;2023-04-21T05:01:31;100878.13;;;8.07;100.00
8140;BME280;4111;50.972;7.072;2023-04-21T05:03:57;100881.13;;;7.99;100.00
8140;BME280;4111;50.972;7.072;2023-04-21T05:06:24;100879.63;;;8.03;100.00
8140;BME280;4111;50.972;7.072;2023-04-21T05:08:51;100881.78;;;8.13;100.00
8140;BME280;4111;50.972;7.072;2023-04-21T05:11:17;100878.44;;;8.18;100.00
8140;BME280;4111;50.972;7.072;2023-04-21T05:13:44;100878.72;;;8.28;100.00
8140;BME280;4111;50.972;7.072;2023-04-21T05:16:10;100879.63;;;8.22;100.00
8140;BME280;4111;50.972;7.072;2023-04-21T05:18:37;100883.38;;;8.21;100.00
8140;BME280;4111;50.972;7.072;2023-04-21T05:21:03;100883.84;;;8.18;100.00
8140;BME280;4111;50.972;7.072;2023-04-21T05:23:30;100886.28;;;8.19;100.00
8140;BME280;4111;50.972;7.072;2023-04-21T05:25:56;100883.75;;;8.24;100.00
8140;BME280;4111;50.972;7.072;2023-04-21T05:28:23;100882.34;;;8.22;100.00
8140;BME280;4111;50.972;7.072;2023-04-21T05:30:49;100890.88;;;8.19;100.00
8140;BME280;4111;50.972;7.072;2023-04-21T05:33:18;100887.88;;;8.27;100.00
8140;BME280;4111;50.972;7.072;2023-04-21T05:35:45;100881.63;;;8.26;100.00
8140;BME280;4111;50.972;7.072;2023-04-21T05:38:12;100891.47;;;8.21;100.00
8140;BME280;4111;50.972;7.072;2023-04-21T05:40:39;100896.38;;;8.12;100.00
8140;BME280;4111;50.972;7.072;2023-04-21T05:43:05;100886.06;;;8.21;100.00
8140;BME280;4111;50.972;7.072;2023-04-21T05:45:31;100880.88;;;8.19;100.00
8140;BME280;4111;50.972;7.072;2023-04-21T05:47:58;100882.09;;;8.23;100.00
8140;BME280;4111;50.972;7.072;2023-04-21T05:50:24;100889.47;;;8.16;100.00
8140;BME280;4111;50.972;7.072;2023-04-21T05:52:53;100890.13;;;8.11;100.00
8140;BME280;4111;50.972;7.072;2023-04-21T05:55:20;100887.44;;;8.11;100.00
8140;BME280;4111;50.972;7.072;2023-04-21T05:57:46;100893.44;;;8.13;100.00
8140;BME280;4111;50.972;7.072;2023-04-21T06:00:13;100901.09;;;8.17;100.00
8140;BME280;4111;50.972;7.072;2023-04-21T06:02:39;100897.06;;;8.26;100.00
8140;BME280;4111;50.972;7.072;2023-04-21T06:05:06;100889.75;;;8.26;100.00
8140;BME280;4111;50.972;7.072;2023-04-21T06:07:34;100891.31;;;8.34;100.00
8140;BME280;4111;50.972;7.072;2023-04-21T06:10:02;100885.09;;;8.33;100.00
8140;BME280;4111;50.972;7.072;2023-04-21T06:12:29;100887.09;;;8.38;100.00
8140;BME280;4111;50.972;7.072;2023-04-21T06:14:55;100888.34;;;8.42;100.00
8140;BME280;4111;50.972;7.072;2023-04-21T06:17:23;100880.03;;;8.56;100.00
8140;BME280;4111;50.972;7.072;2023-04-21T06:19:49;100891.56;;;8.63;100.00
8140;BME280;4111;50.972;7.072;2023-04-21T06:22:22;100880.31;;;8.66;100.00
8140;BME280;4111;50.972;7.072;2023-04-21T06:24:48;100883.47;;;8.63;100.00
8140;BME280;4111;50.972;7.072;2023-04-21T06:27:15;100895.13;;;8.63;100.00
8140;BME280;4111;50.972;7.072;2023-04-21T06:29:42;100882.41;;;8.64;100.00
8140;BME280;4111;50.972;7.072;2023-04-21T06:32:10;100880.69;;;8.69;100.00
8140;BME280;4111;50.972;7.072;2023-04-21T06:34:37;100882.81;;;8.79;100.00
8140;BME280;4111;50.972;7.072;2023-04-21T06:37:04;100877.81;;;8.95;100.00
8140;BME280;4111;50.972;7.072;2023-04-21T06:39:30;100876.50;;;8.97;100.00
8140;BME280;4111;50.972;7.072;2023-04-21T06:41:57;100875.81;;;9.02;100.00
8140;BME280;4111;50.972;7.072;2023-04-21T06:44:23;100875.94;;;9.07;100.00
8140;BME280;4111;50.972;7.072;2023-04-21T06:46:49;100886.28;;;9.10;100.00
8140;BME280;4111;50.972;7.072;2023-04-21T06:49:16;100883.00;;;9.08;100.00
8140;BME280;4111;50.972;7.072;2023-04-21T06:51:43;100883.84;;;9.08;100.00
8140;BME280;4111;50.972;7.072;2023-04-21T06:54:10;100877.69;;;9.01;100.00
8140;BME280;4111;50.972;7.072;2023-04-21T06:56:36;100887.81;;;9.06;100.00
8140;BME280;4111;50.972;7.072;2023-04-21T06:59:02;100884.19;;;9.12;100.00
8140;BME280;4111;50.972;7.072;2023-04-21T07:01:29;100880.41;;;9.13;100.00
8140;BME280;4111;50.972;7.072;2023-04-21T07:03:55;100868.88;;;9.29;100.00
8140;BME280;4111;50.972;7.072;2023-04-21T07:06:22;100875.03;;;9.37;100.00
8140;BME280;4111;50.972;7.072;2023-04-21T07:08:48;100872.69;;;9.52;100.00
8140;BME280;4111;50.972;7.072;2023-04-21T07:11:15;100872.31;;;9.60;100.00
8140;BME280;4111;50.972;7.072;2023-04-21T07:13:41;100876.56;;;9.68;100.00
8140;BME280;4111;50.972;7.072;2023-04-21T07:16:07;100866.53;;;9.68;100.00
8140;BME280;4111;50.972;7.072;2023-04-21T07:18:34;100873.13;;;9.72;100.00
8140;BME280;4111;50.972;7.072;2023-04-21T07:21:00;100872.16;;;9.79;100.00
8140;BME280;4111;50.972;7.072;2023-04-21T07:23:27;100872.66;;;9.76;100.00
8140;BME280;4111;50.972;7.072;2023-04-21T07:25:53;100880.88;;;9.81;100.00
8140;BME280;4111;50.972;7.072;2023-04-21T07:28:19;100882.19;;;9.78;100.00
8140;BME280;4111;50.972;7.072;2023-04-21T07:30:46;100873.34;;;9.71;100.00
8140;BME280;4111;50.972;7.072;2023-04-21T07:33:12;100873.47;;;9.76;100.00
8140;BME280;4111;50.972;7.072;2023-04-21T07:35:39;100876.63;;;9.85;100.00
8140;BME280;4111;50.972;7.072;2023-04-21T07:38:05;100871.94;;;9.80;100.00
8140;BME280;4111;50.972;7.072;2023-04-21T07:40:32;100869.56;;;9.84;100.00
8140;BME280;4111;50.972;7.072;2023-04-21T07:42:58;100868.72;;;9.95;100.00
8140;BME280;4111;50.972;7.072;2023-04-21T07:45:25;100872.63;;;9.99;100.00
8140;BME280;4111;50.972;7.072;2023-04-21T07:47:52;100882.28;;;9.95;100.00
8140;BME280;4111;50.972;7.072;2023-04-21T07:50:18;100874.72;;;9.97;100.00
8140;BME280;4111;50.972;7.072;2023-04-21T07:52:45;100879.41;;;10.13;100.00
8140;BME280;4111;50.972;7.072;2023-04-21T07:55:13;100875.47;;;10.45;100.00
8140;BME280;4111;50.972;7.072;2023-04-21T07:57:40;100868.25;;;10.67;100.00
8140;BME280;4111;50.972;7.072;2023-04-21T08:00:07;100872.81;;;10.79;100.00
8140;BME280;4111;50.972;7.072;2023-04-21T08:02:34;100877.72;;;10.82;100.00
8140;BME280;4111;50.972;7.072;2023-04-21T08:05:01;100875.88;;;10.82;100.00
8140;BME280;4111;50.972;7.072;2023-04-21T08:07:27;100865.13;;;10.76;100.00
8140;BME280;4111;50.972;7.072;2023-04-21T08:09:54;100869.94;;;10.85;100.00
8140;BME280;4111;50.972;7.072;2023-04-21T08:12:21;100870.16;;;10.84;100.00
8140;BME280;4111;50.972;7.072;2023-04-21T08:14:47;100870.03;;;10.90;100.00
8140;BME280;4111;50.972;7.072;2023-04-21T08:17:14;100867.38;;;10.96;100.00
8140;BME280;4111;50.972;7.072;2023-04-21T08:19:41;100874.63;;;11.07;100.00
8140;BME280;4111;50.972;7.072;2023-04-21T08:22:08;100860.47;;;11.05;100.00
8140;BME280;4111;50.972;7.072;2023-04-21T08:24:34;100854.38;;;11.15;100.00
8140;BME280;4111;50.972;7.072;2023-04-21T08:27:01;100857.19;;;11.20;100.00
8140;BME280;4111;50.972;7.072;2023-04-21T08:29:28;100848.53;;;11.23;100.00
8140;BME280;4111;50.972;7.072;2023-04-21T08:31:54;100861.88;;;11.24;100.00
8140;BME280;4111;50.972;7.072;2023-04-21T08:34:21;100863.94;;;11.34;100.00
8140;BME280;4111;50.972;7.072;2023-04-21T08:36:50;100865.16;;;11.26;100.00
8140;BME280;4111;50.972;7.072;2023-04-21T08:39:17;100867.66;;;11.28;100.00
8140;BME280;4111;50.972;7.072;2023-04-21T08:41:45;100877.66;;;11.44;100.00
8140;BME280;4111;50.972;7.072;2023-04-21T08:44:12;100867.28;;;11.58;100.00
8140;BME280;4111;50.972;7.072;2023-04-21T08:46:39;100867.84;;;11.60;100.00
8140;BME280;4111;50.972;7.072;2023-04-21T08:49:08;100864.13;;;11.66;100.00
8140;BME280;4111;50.972;7.072;2023-04-21T08:51:35;100855.38;;;11.64;100.00
8140;BME280;4111;50.972;7.072;2023-04-21T08:54:01;100855.03;;;11.78;100.00
8140;BME280;4111;50.972;7.072;2023-04-21T08:56:28;100859.34;;;11.74;99.34
8140;BME280;4111;50.972;7.072;2023-04-21T08:58:55;100863.97;;;11.73;99.77
8140;BME280;4111;50.972;7.072;2023-04-21T09:01:21;100866.56;;;11.85;99.89
8140;BME280;4111;50.972;7.072;2023-04-21T09:03:48;100867.53;;;11.79;99.17
8140;BME280;4111;50.972;7.072;2023-04-21T09:06:15;100859.81;;;11.70;98.62
8140;BME280;4111;50.972;7.072;2023-04-21T09:08:51;100864.56;;;11.58;98.77
8140;BME280;4111;50.972;7.072;2023-04-21T09:11:17;100868.56;;;11.73;99.56
8140;BME280;4111;50.972;7.072;2023-04-21T09:13:44;100855.88;;;12.00;99.44
8140;BME280;4111;50.972;7.072;2023-04-21T09:16:19;100858.97;;;12.31;99.02
8140;BME280;4111;50.972;7.072;2023-04-21T09:18:47;100858.69;;;12.55;98.75
8140;BME280;4111;50.972;7.072;2023-04-21T09:21:15;100852.19;;;12.88;98.09
8140;BME280;4111;50.972;7.072;2023-04-21T09:23:47;100849.81;;;12.97;96.19
8140;BME280;4111;50.972;7.072;2023-04-21T09:26:15;100846.13;;;12.81;96.00
8140;BME280;4111;50.972;7.072;2023-04-21T09:28:43;100851.06;;;12.84;95.31
8140;BME280;4111;50.972;7.072;2023-04-21T09:31:21;100843.53;;;12.96;95.84
8140;BME280;4111;50.972;7.072;2023-04-21T09:33:53;100847.81;;;13.19;95.64
8140;BME280;4111;50.972;7.072;2023-04-21T09:36:27;100834.94;;;13.47;95.42
8140;BME280;4111;50.972;7.072;2023-04-21T09:38:55;100832.22;;;13.47;95.06
8140;BME280;4111;50.972;7.072;2023-04-21T09:41:42;100839.56;;;13.46;94.26
8140;BME280;4111;50.972;7.072;2023-04-21T09:44:09;100828.94;;;13.45;94.28
8140;BME280;4111;50.972;7.072;2023-04-21T09:46:36;100822.41;;;13.51;94.25
8140;BME280;4111;50.972;7.072;2023-04-21T09:49:03;100821.66;;;13.61;94.35
8140;BME280;4111;50.972;7.072;2023-04-21T09:51:31;100823.03;;;13.63;93.75
8140;BME280;4111;50.972;7.072;2023-04-21T09:54:09;100824.69;;;13.69;93.38
8140;BME280;4111;50.972;7.072;2023-04-21T09:56:57;100811.34;;;13.78;93.18
8140;BME280;4111;50.972;7.072;2023-04-21T09:59:25;100815.00;;;14.04;92.79
8140;BME280;4111;50.972;7.072;2023-04-21T10:01:56;100807.47;;;14.53;92.04
8140;BME280;4111;50.972;7.072;2023-04-21T10:04:24;100801.16;;;14.47;90.02
8140;BME280;4111;50.972;7.072;2023-04-21T10:06:52;100804.81;;;14.73;88.43
8140;BME280;4111;50.972;7.072;2023-04-21T10:09:20;100797.16;;;14.75;87.85
8140;BME280;4111;50.972;7.072;2023-04-21T10:11:48;100797.13;;;15.01;87.25
8140;BME280;4111;50.972;7.072;2023-04-21T10:14:15;100801.44;;;15.43;86.37
8140;BME280;4111;50.972;7.072;2023-04-21T10:16:41;100789.44;;;15.29;84.68
8140;BME280;4111;50.972;7.072;2023-04-21T10:19:28;100792.41;;;15.37;83.55
8140;BME280;4111;50.972;7.072;2023-04-21T10:21:57;100796.50;;;15.50;83.14
8140;BME280;4111;50.972;7.072;2023-04-21T10:24:28;100788.25;;;15.55;82.35
8140;BME280;4111;50.972;7.072;2023-04-21T10:26:58;100783.25;;;15.83;82.59
8140;BME280;4111;50.972;7.072;2023-04-21T10:29:29;100778.59;;;15.83;81.64
8140;BME280;4111;50.972;7.072;2023-04-21T10:32:30;100780.72;;;16.02;80.73
8140;BME280;4111;50.972;7.072;2023-04-21T10:34:57;100774.63;;;16.15;79.39
8140;BME280;4111;50.972;7.072;2023-04-21T10:37:23;100764.47;;;16.16;79.29
8140;BME280;4111;50.972;7.072;2023-04-21T10:39:52;100768.19;;;16.35;78.62
8140;BME280;4111;50.972;7.072;2023-04-21T10:42:23;100759.97;;;16.35;78.34
8140;BME280;4111;50.972;7.072;2023-04-21T10:47:27;100750.34;;;16.38;76.42
8140;BME280;4111;50.972;7.072;2023-04-21T10:49:58;100737.38;;;16.49;76.39
8140;BME280;4111;50.972;7.072;2023-04-21T10:52:32;100748.41;;;16.43;74.12
8140;BME280;4111;50.972;7.072;2023-04-21T10:57:25;100740.88;;;16.20;74.28
8140;BME280;4111;50.972;7.072;2023-04-21T10:59:52;100736.13;;;16.31;74.20
8140;BME280;4111;50.972;7.072;2023-04-21T11:02:18;100726.66;;;16.18;73.45
8140;BME280;4111;50.972;7.072;2023-04-21T11:04:50;100730.03;;;16.04;72.97
8140;BME280;4111;50.972;7.072;2023-04-21T11:07:22;100728.88;;;16.11;73.23
8140;BME280;4111;50.972;7.072;2023-04-21T11:12:29;100702.16;;;16.32;73.10
8140;BME280;4111;50.972;7.072;2023-04-21T11:14:56;100705.34;;;16.44;72.21
8140;BME280;4111;50.972;7.072;2023-04-21T11:17:23;100702.66;;;16.68;72.28
8140;BME280;4111;50.972;7.072;2023-04-21T11:19:54;100696.13;;;16.64;69.24
8140;BME280;4111;50.972;7.072;2023-04-21T11:22:22;100692.13;;;16.80;69.66
8140;BME280;4111;50.972;7.072;2023-04-21T11:24:53;100689.91;;;16.88;69.75
8140;BME280;4111;50.972;7.072;2023-04-21T11:27:20;100689.16;;;17.06;69.27
8140;BME280;4111;50.972;7.072;2023-04-21T11:29:49;100685.84;;;17.09;68.34
8140;BME280;4111;50.972;7.072;2023-04-21T11:32:16;100679.59;;;17.03;67.81
8140;BME280;4111;50.972;7.072;2023-04-21T11:34:42;100678.13;;;17.11;67.83
8140;BME280;4111;50.972;7.072;2023-04-21T11:37:13;100673.41;;;17.17;67.54
8140;BME280;4111;50.972;7.072;2023-04-21T11:39:42;100663.38;;;17.07;66.86
8140;BME280;4111;50.972;7.072;2023-04-21T11:42:09;100668.91;;;17.02;67.07
8140;BME280;4111;50.972;7.072;2023-04-21T11:44:40;100666.38;;;17.05;67.24
8140;BME280;4111;50.972;7.072;2023-04-21T11:47:17;100667.31;;;17.20;66.64
8140;BME280;4111;50.972;7.072;2023-04-21T11:49:46;100652.63;;;17.11;65.70
8140;BME280;4111;50.972;7.072;2023-04-21T11:52:24;100656.59;;;16.99;66.27
8140;BME280;4111;50.972;7.072;2023-04-21T11:54:56;100659.53;;;17.08;66.18
8140;BME280;4111;50.972;7.072;2023-04-21T11:57:24;100649.69;;;17.02;65.46
8140;BME280;4111;50.972;7.072;2023-04-21T11:59:51;100644.22;;;17.26;66.29
8140;BME280;4111;50.972;7.072;2023-04-21T12:02:29;100634.22;;;17.54;65.58
8140;BME280;4111;50.972;7.072;2023-04-21T12:07:24;100637.94;;;17.63;65.49
8140;BME280;4111;50.972;7.072;2023-04-21T12:09:51;100641.69;;;17.30;65.59
8140;BME280;4111;50.972;7.072;2023-04-21T12:12:18;100634.81;;;17.32;66.62
8140;BME280;4111;50.972;7.072;2023-04-21T12:14:44;100635.28;;;17.58;66.47
8140;BME280;4111;50.972;7.072;2023-04-21T12:17:11;100624.22;;;17.63;65.63
8140;BME280;4111;50.972;7.072;2023-04-21T12:19:40;100625.00;;;17.83;65.92
8140;BME280;4111;50.972;7.072;2023-04-21T12:22:08;100629.69;;;17.82;65.65
8140;BME280;4111;50.972;7.072;2023-04-21T12:24:35;100633.84;;;17.80;65.31
8140;BME280;4111;50.972;7.072;2023-04-21T12:27:02;100628.00;;;17.68;65.42
8140;BME280;4111;50.972;7.072;2023-04-21T12:29:29;100622.56;;;17.62;65.61
8140;BME280;4111;50.972;7.072;2023-04-21T12:31:55;100623.97;;;17.79;65.53
8140;BME280;4111;50.972;7.072;2023-04-21T12:34:22;100621.84;;;17.76;65.00
8140;BME280;4111;50.972;7.072;2023-04-21T12:36:48;100618.63;;;17.69;65.15
8140;BME280;4111;50.972;7.072;2023-04-21T12:39:15;100619.09;;;17.76;65.67
8140;BME280;4111;50.972;7.072;2023-04-21T12:41:44;100612.50;;;17.96;65.04
8140;BME280;4111;50.972;7.072;2023-04-21T12:44:13;100619.41;;;17.93;64.12
8140;BME280;4111;50.972;7.072;2023-04-21T12:46:40;100617.44;;;17.75;63.94
8140;BME280;4111;50.972;7.072;2023-04-21T12:49:06;100611.59;;;17.81;64.37
8140;BME280;4111;50.972;7.072;2023-04-21T12:51:34;100613.06;;;18.12;64.14
8140;BME280;4111;50.972;7.072;2023-04-21T12:54:00;100610.66;;;18.24;62.63
8140;BME280;4111;50.972;7.072;2023-04-21T12:56:27;100606.00;;;18.38;61.74
8140;BME280;4111;50.972;7.072;2023-04-21T12:58:54;100603.38;;;18.61;61.43
8140;BME280;4111;50.972;7.072;2023-04-21T13:01:21;100601.91;;;18.82;61.56
8140;BME280;4111;50.972;7.072;2023-04-21T13:03:48;100604.66;;;18.82;60.76
8140;BME280;4111;50.972;7.072;2023-04-21T13:06:16;100590.66;;;18.79;59.87
8140;BME280;4111;50.972;7.072;2023-04-21T13:08:42;100591.09;;;19.00;60.48
8140;BME280;4111;50.972;7.072;2023-04-21T13:11:09;100588.84;;;19.16;60.42
8140;BME280;4111;50.972;7.072;2023-04-21T13:13:36;100583.38;;;19.38;60.17
8140;BME280;4111;50.972;7.072;2023-04-21T13:16:02;100577.56;;;19.40;59.66
8140;BME280;4111;50.972;7.072;2023-04-21T13:18:29;100579.34;;;19.58;60.36
8140;BME280;4111;50.972;7.072;2023-04-21T13:20:56;100575.53;;;20.05;59.85
8140;BME280;4111;50.972;7.072;2023-04-21T13:23:22;100572.44;;;20.06;59.71